This is the latest recevied weather packets stored in our database for station/object F1ZFG-13. If no packets are shown the sender has not sent any weather packets the latest 10 day(s).
| Time | Temp. | Humidity | Pressure | Rain* | Wind** | Luminosity | Snow |
|---|---|---|---|---|---|---|---|
| 1787998899 | 22.78° C | 49% | 1017.6 hPa | 0 mm | - | - | - |
| 1787995382 | 21.67° C | 54% | 1017.9 hPa | 0 mm | - | - | - |
| 1787992228 | 19.44° C | 64% | 1018.1 hPa | 0 mm | - | - | - |
| 1787988996 | 17.22° C | 74% | 1018.3 hPa | 0 mm | - | - | - |
| 1787986104 | 15° C | 77% | 1018 hPa | 0 mm | - | - | - |
| 1787982564 | 13.89° C | 85% | 1017.9 hPa | 0 mm | - | - | - |
| 1787979049 | 13.89° C | 88% | 1017.9 hPa | 0 mm | - | - | - |
| 1787975929 | 14.44° C | 87% | 1018 hPa | 0 mm | - | - | - |
| 1787972704 | 14.44° C | 87% | 1018 hPa | 0 mm | - | - | - |
| 1787969414 | 15° C | 83% | 1018.1 hPa | 0 mm | - | - | - |
| 1787966174 | 16.11° C | 85% | 1018.1 hPa | 0 mm | - | - | - |
| 1787962581 | 16.67° C | 82% | 1018.6 hPa | 0 mm | - | - | - |
| 1787959253 | 17.22° C | 80% | 1018.5 hPa | 0 mm | - | - | - |
| 1787956342 | 17.78° C | 78% | 1018.6 hPa | 0 mm | - | - | - |
| 1787953068 | 18.33° C | 74% | 1018.4 hPa | 0 mm | - | - | - |
| 1787949889 | 18.89° C | 67% | 1017.8 hPa | 0 mm | - | - | - |
| 1787946528 | 20° C | 59% | 1017 hPa | 0 mm | - | - | - |
| 1787943642 | 21.67° C | 45% | 1016.6 hPa | 0 mm | - | - | - |
| 1787940626 | 23.33° C | 37% | 1015.1 hPa | 0 mm | - | - | - |
| 1787937540 | 25.56° C | 30% | 1014.5 hPa | 0 mm | - | - | - |
| 1787934659 | 26.67° C | 28% | 1014.4 hPa | 0 mm | - | - | - |
| 1787931156 | 26.67° C | 40% | 1014.1 hPa | 0 mm | - | - | - |
| 1787927569 | 26.11° C | 35% | 1014.2 hPa | 0 mm | - | - | - |
| 1787924643 | 27.22° C | 29% | 1014.1 hPa | 0 mm | - | - | - |
| 1787921288 | 25.56° C | 47% | 1014 hPa | 0 mm | - | - | - |
* Rain latest hour (hover to see other rain measurements)
** Current wind speed in m/s (hover to see current wind gust speed)